logo dgac
Lunes 27 de Septiembre del 2021
Buscar por aerodromo o helipuerto
Ingrese nombre de aeródromo, localidad o designador OACI:

Aeródromo: Nuevo Chaitén (PUB) (SCTN)

Ubicación: Chaitén, X Región, Chile (42º 46' 55'' S, 72º 50' 06'' W) Ver ubicación en el mapa

Pistas

Orientación Dimensión Pendiente Superficie Resistencia APCH THR RWY PAPI
01 - 19 1200 x 30 0,20 Asfalto 20 F/A/W/T No Sí (3º)
Horas de operación HJ
Elevación 8,2 m (26,95 ft) ft
Otra Información Adm : DGAC
Uso : PUB
Ubicado: 18,6 Km NW de Chaitén
Fono : 652486393 CEL +56 9 40418511
email : aro.nuevochaiten@dgac.gob.cl

Otra información ver AIP-Chile Volumen I AD 3.9-3.6-C
CCCM/FCCV Descargar
andera de Chile
Mapa de Nuevo Chaitén (PUB) (SCTN)

Último METAR

METAR SCTN 270000Z AUTO 12004KT 9999 FEW020 OVC037 07/05 Q1025

Último TAF

TAF SCTN 261028Z 2612/2624 04005KT 9999 SCT040 TN05/2612Z TX11/2619Z BECMG 2613/2615 23007KT

Últimas fotos cámaras

Imagen aerodromo Nuevo Chaitén (PUB) (SCTN) Norte tomada el 27-09-2021 12:16:49 Imagen aerodromo Nuevo Chaitén (PUB) (SCTN) Sur tomada el 27-09-2021 12:16:31

Último NOTAM

C4142/21 NOTAMN Q)SCTZ/QMRHX/IV/B/A/000/999/4247S07250W005 A)SCTN B)2109161227 C)2112162359 E)RWY 01/19 CTN DEBIDO A CONCENTRACION DE AVES MEDIANO TAMANNO